sensor_id;sensor_type;location;lat;lon;timestamp;temperature;humidity
7512;DHT22;9999;48.780;9.146;2023-03-01T00:02:15;-0.30;99.90
7512;DHT22;9999;48.780;9.146;2023-03-01T00:04:42;-0.30;99.90
7512;DHT22;9999;48.780;9.146;2023-03-01T00:07:10;-0.30;99.90
7512;DHT22;9999;48.780;9.146;2023-03-01T00:09:37;-0.30;99.90
7512;DHT22;9999;48.780;9.146;2023-03-01T00:12:06;-0.30;99.90
7512;DHT22;9999;48.780;9.146;2023-03-01T00:14:32;-0.30;99.90
7512;DHT22;9999;48.780;9.146;2023-03-01T00:16:59;-0.40;99.90
7512;DHT22;9999;48.780;9.146;2023-03-01T00:19:27;-0.40;99.90
7512;DHT22;9999;48.780;9.146;2023-03-01T00:21:54;-0.40;99.90
7512;DHT22;9999;48.780;9.146;2023-03-01T00:24:22;-0.40;99.90
7512;DHT22;9999;48.780;9.146;2023-03-01T00:26:52;-0.40;99.90
7512;DHT22;9999;48.780;9.146;2023-03-01T00:29:21;-0.40;99.90
7512;DHT22;9999;48.780;9.146;2023-03-01T00:31:47;-0.40;99.90
7512;DHT22;9999;48.780;9.146;2023-03-01T00:34:14;-0.50;99.90
7512;DHT22;9999;48.780;9.146;2023-03-01T00:36:41;-0.40;99.90
7512;DHT22;9999;48.780;9.146;2023-03-01T00:39:11;-0.50;99.90
7512;DHT22;9999;48.780;9.146;2023-03-01T00:41:40;-0.40;99.90
7512;DHT22;9999;48.780;9.146;2023-03-01T00:44:08;-0.40;99.90
7512;DHT22;9999;48.780;9.146;2023-03-01T00:46:35;-0.40;99.90
7512;DHT22;9999;48.780;9.146;2023-03-01T00:49:02;-0.50;99.90
7512;DHT22;9999;48.780;9.146;2023-03-01T00:51:30;-0.50;99.90
7512;DHT22;9999;48.780;9.146;2023-03-01T00:53:59;-0.50;99.90
7512;DHT22;9999;48.780;9.146;2023-03-01T00:56:26;-0.50;99.90
7512;DHT22;9999;48.780;9.146;2023-03-01T00:58:54;-0.50;99.90
7512;DHT22;9999;48.780;9.146;2023-03-01T01:01:24;-0.50;99.90
7512;DHT22;9999;48.780;9.146;2023-03-01T01:03:54;-0.50;99.90
7512;DHT22;9999;48.780;9.146;2023-03-01T01:06:22;-0.60;99.90
7512;DHT22;9999;48.780;9.146;2023-03-01T01:08:50;-0.60;99.90
7512;DHT22;9999;48.780;9.146;2023-03-01T01:11:17;-0.60;99.90
7512;DHT22;9999;48.780;9.146;2023-03-01T01:13:44;-0.50;99.90
7512;DHT22;9999;48.780;9.146;2023-03-01T01:16:14;-0.60;99.90
7512;DHT22;9999;48.780;9.146;2023-03-01T01:18:41;-0.70;99.90
7512;DHT22;9999;48.780;9.146;2023-03-01T01:21:10;-0.70;99.90
7512;DHT22;9999;48.780;9.146;2023-03-01T01:23:38;-0.70;99.90
7512;DHT22;9999;48.780;9.146;2023-03-01T01:26:07;-0.80;99.90
7512;DHT22;9999;48.780;9.146;2023-03-01T01:28:34;-0.80;99.90
7512;DHT22;9999;48.780;9.146;2023-03-01T01:31:04;-0.80;99.90
7512;DHT22;9999;48.780;9.146;2023-03-01T01:33:32;-0.80;99.90
7512;DHT22;9999;48.780;9.146;2023-03-01T01:36:03;-0.90;99.90
7512;DHT22;9999;48.780;9.146;2023-03-01T01:38:30;-0.90;99.90
7512;DHT22;9999;48.780;9.146;2023-03-01T01:40:57;-0.90;99.90
7512;DHT22;9999;48.780;9.146;2023-03-01T01:43:25;-0.90;99.90
7512;DHT22;9999;48.780;9.146;2023-03-01T01:45:55;-0.90;99.90
7512;DHT22;9999;48.780;9.146;2023-03-01T01:48:26;-1.00;99.90
7512;DHT22;9999;48.780;9.146;2023-03-01T01:51:11;-1.00;99.90
7512;DHT22;9999;48.780;9.146;2023-03-01T01:53:39;-0.90;99.90
7512;DHT22;9999;48.780;9.146;2023-03-01T01:56:09;-1.00;99.90
7512;DHT22;9999;48.780;9.146;2023-03-01T01:58:38;-1.00;99.90
7512;DHT22;9999;48.780;9.146;2023-03-01T02:01:07;-1.10;99.90
7512;DHT22;9999;48.780;9.146;2023-03-01T02:03:37;-1.00;99.90
7512;DHT22;9999;48.780;9.146;2023-03-01T02:06:13;-1.00;99.90
7512;DHT22;9999;48.780;9.146;2023-03-01T02:08:44;-0.90;99.90
7512;DHT22;9999;48.780;9.146;2023-03-01T02:11:12;-0.80;99.90
7512;DHT22;9999;48.780;9.146;2023-03-01T02:13:41;-0.80;99.90
7512;DHT22;9999;48.780;9.146;2023-03-01T02:16:10;-0.80;99.90
7512;DHT22;9999;48.780;9.146;2023-03-01T02:18:38;-0.80;99.90
7512;DHT22;9999;48.780;9.146;2023-03-01T02:21:15;-0.70;99.90
7512;DHT22;9999;48.780;9.146;2023-03-01T02:23:43;-0.70;99.90
7512;DHT22;9999;48.780;9.146;2023-03-01T02:26:19;-0.70;99.90
7512;DHT22;9999;48.780;9.146;2023-03-01T02:28:48;-0.70;99.90
7512;DHT22;9999;48.780;9.146;2023-03-01T02:31:19;-0.70;99.90
7512;DHT22;9999;48.780;9.146;2023-03-01T02:34:05;-0.70;99.90
7512;DHT22;9999;48.780;9.146;2023-03-01T02:36:36;-0.60;99.90
7512;DHT22;9999;48.780;9.146;2023-03-01T02:39:06;-0.60;99.90
7512;DHT22;9999;48.780;9.146;2023-03-01T02:41:43;-0.60;99.90
7512;DHT22;9999;48.780;9.146;2023-03-01T02:44:12;-0.60;99.90
7512;DHT22;9999;48.780;9.146;2023-03-01T02:46:43;-0.50;99.90
7512;DHT22;9999;48.780;9.146;2023-03-01T02:49:20;-0.60;99.90
7512;DHT22;9999;48.780;9.146;2023-03-01T02:52:01;-0.60;99.90
7512;DHT22;9999;48.780;9.146;2023-03-01T02:54:38;-0.60;99.90
7512;DHT22;9999;48.780;9.146;2023-03-01T02:57:06;-0.60;99.90
7512;DHT22;9999;48.780;9.146;2023-03-01T02:59:36;-0.60;99.90
7512;DHT22;9999;48.780;9.146;2023-03-01T03:02:07;-0.60;99.90
7512;DHT22;9999;48.780;9.146;2023-03-01T03:04:34;-0.50;99.90
7512;DHT22;9999;48.780;9.146;2023-03-01T03:07:01;-0.50;99.90
7512;DHT22;9999;48.780;9.146;2023-03-01T03:09:28;-0.60;99.90
7512;DHT22;9999;48.780;9.146;2023-03-01T03:11:55;-0.50;99.90
7512;DHT22;9999;48.780;9.146;2023-03-01T03:14:22;-0.50;99.90
7512;DHT22;9999;48.780;9.146;2023-03-01T03:16:50;-0.50;99.90
7512;DHT22;9999;48.780;9.146;2023-03-01T03:19:18;-0.50;99.90
7512;DHT22;9999;48.780;9.146;2023-03-01T03:21:45;-0.40;99.90
7512;DHT22;9999;48.780;9.146;2023-03-01T03:24:12;-0.40;99.90
7512;DHT22;9999;48.780;9.146;2023-03-01T03:26:39;-0.40;99.90
7512;DHT22;9999;48.780;9.146;2023-03-01T03:29:06;-0.40;99.90
7512;DHT22;9999;48.780;9.146;2023-03-01T03:31:33;-0.40;99.90
7512;DHT22;9999;48.780;9.146;2023-03-01T03:34:01;-0.30;99.90
7512;DHT22;9999;48.780;9.146;2023-03-01T03:36:28;-0.40;99.90
7512;DHT22;9999;48.780;9.146;2023-03-01T03:38:55;-0.30;99.90
7512;DHT22;9999;48.780;9.146;2023-03-01T03:41:22;-0.30;99.90
7512;DHT22;9999;48.780;9.146;2023-03-01T03:43:49;-0.30;99.90
7512;DHT22;9999;48.780;9.146;2023-03-01T03:46:15;-0.30;99.90
7512;DHT22;9999;48.780;9.146;2023-03-01T03:48:44;-0.30;99.90
7512;DHT22;9999;48.780;9.146;2023-03-01T03:51:14;-0.20;99.90
7512;DHT22;9999;48.780;9.146;2023-03-01T03:53:41;-0.20;99.90
7512;DHT22;9999;48.780;9.146;2023-03-01T03:56:09;-0.10;99.90
7512;DHT22;9999;48.780;9.146;2023-03-01T03:58:36;-0.20;99.90
7512;DHT22;9999;48.780;9.146;2023-03-01T04:01:03;-0.30;99.90
7512;DHT22;9999;48.780;9.146;2023-03-01T04:03:31;-0.30;99.90
7512;DHT22;9999;48.780;9.146;2023-03-01T04:05:59;-0.30;99.90
7512;DHT22;9999;48.780;9.146;2023-03-01T04:08:28;-0.30;99.90
7512;DHT22;9999;48.780;9.146;2023-03-01T04:10:58;-0.30;99.90
7512;DHT22;9999;48.780;9.146;2023-03-01T04:13:26;-0.30;99.90
7512;DHT22;9999;48.780;9.146;2023-03-01T04:15:54;-0.30;99.90
7512;DHT22;9999;48.780;9.146;2023-03-01T04:18:22;-0.30;99.90
7512;DHT22;9999;48.780;9.146;2023-03-01T04:20:50;-0.30;99.90
7512;DHT22;9999;48.780;9.146;2023-03-01T04:23:21;-0.30;99.90
7512;DHT22;9999;48.780;9.146;2023-03-01T04:25:50;-0.30;99.90
7512;DHT22;9999;48.780;9.146;2023-03-01T04:28:21;-0.30;99.90
7512;DHT22;9999;48.780;9.146;2023-03-01T04:30:50;-0.30;99.90
7512;DHT22;9999;48.780;9.146;2023-03-01T04:33:17;-0.30;99.90
7512;DHT22;9999;48.780;9.146;2023-03-01T04:35:44;-0.20;99.90
7512;DHT22;9999;48.780;9.146;2023-03-01T04:38:11;-0.20;99.90
7512;DHT22;9999;48.780;9.146;2023-03-01T04:40:38;-0.20;99.90
7512;DHT22;9999;48.780;9.146;2023-03-01T04:43:10;-0.20;99.90
7512;DHT22;9999;48.780;9.146;2023-03-01T04:45:37;-0.20;99.90
7512;DHT22;9999;48.780;9.146;2023-03-01T04:48:04;-0.30;99.90
7512;DHT22;9999;48.780;9.146;2023-03-01T04:50:31;-0.30;99.90
7512;DHT22;9999;48.780;9.146;2023-03-01T04:52:58;-0.20;99.90
7512;DHT22;9999;48.780;9.146;2023-03-01T04:55:26;-0.20;99.90
7512;DHT22;9999;48.780;9.146;2023-03-01T04:57:53;-0.30;99.90
7512;DHT22;9999;48.780;9.146;2023-03-01T05:00:22;-0.20;99.90
7512;DHT22;9999;48.780;9.146;2023-03-01T05:02:51;-0.20;99.90
7512;DHT22;9999;48.780;9.146;2023-03-01T05:05:25;-0.20;99.90
7512;DHT22;9999;48.780;9.146;2023-03-01T05:07:54;-0.30;99.90
7512;DHT22;9999;48.780;9.146;2023-03-01T05:10:21;-0.30;99.90
7512;DHT22;9999;48.780;9.146;2023-03-01T05:12:48;-0.30;99.90
7512;DHT22;9999;48.780;9.146;2023-03-01T05:15:17;-0.30;99.90
7512;DHT22;9999;48.780;9.146;2023-03-01T05:17:45;-0.20;99.90
7512;DHT22;9999;48.780;9.146;2023-03-01T05:20:12;-0.20;99.90
7512;DHT22;9999;48.780;9.146;2023-03-01T05:22:39;-0.20;99.90
7512;DHT22;9999;48.780;9.146;2023-03-01T05:25:06;-0.10;99.90
7512;DHT22;9999;48.780;9.146;2023-03-01T05:27:34;-0.10;99.90
7512;DHT22;9999;48.780;9.146;2023-03-01T05:30:00;-0.10;99.90
7512;DHT22;9999;48.780;9.146;2023-03-01T05:32:40;-0.10;99.90
7512;DHT22;9999;48.780;9.146;2023-03-01T05:35:08;-0.10;99.90
7512;DHT22;9999;48.780;9.146;2023-03-01T05:37:39;0.00;99.90
7512;DHT22;9999;48.780;9.146;2023-03-01T05:40:08;-0.10;99.90
7512;DHT22;9999;48.780;9.146;2023-03-01T05:42:42;-0.10;99.90
7512;DHT22;9999;48.780;9.146;2023-03-01T05:45:10;0.00;99.90
7512;DHT22;9999;48.780;9.146;2023-03-01T05:47:38;0.00;99.90
7512;DHT22;9999;48.780;9.146;2023-03-01T05:50:12;0.00;99.90
7512;DHT22;9999;48.780;9.146;2023-03-01T05:52:39;0.00;99.90
7512;DHT22;9999;48.780;9.146;2023-03-01T05:55:06;0.00;99.90
7512;DHT22;9999;48.780;9.146;2023-03-01T05:57:33;0.00;99.90
7512;DHT22;9999;48.780;9.146;2023-03-01T06:00:00;0.10;99.90
7512;DHT22;9999;48.780;9.146;2023-03-01T06:02:27;0.00;99.90
7512;DHT22;9999;48.780;9.146;2023-03-01T06:04:54;0.00;99.90
7512;DHT22;9999;48.780;9.146;2023-03-01T06:07:23;-0.10;99.90
7512;DHT22;9999;48.780;9.146;2023-03-01T06:09:49;0.00;99.90
7512;DHT22;9999;48.780;9.146;2023-03-01T06:12:16;0.00;99.90
7512;DHT22;9999;48.780;9.146;2023-03-01T06:14:45;0.10;99.90
7512;DHT22;9999;48.780;9.146;2023-03-01T06:17:11;0.20;99.90
7512;DHT22;9999;48.780;9.146;2023-03-01T06:19:38;0.20;99.90
7512;DHT22;9999;48.780;9.146;2023-03-01T06:22:05;0.20;99.90
7512;DHT22;9999;48.780;9.146;2023-03-01T06:24:33;0.20;99.90
7512;DHT22;9999;48.780;9.146;2023-03-01T06:27:00;0.20;99.90
7512;DHT22;9999;48.780;9.146;2023-03-01T06:29:27;0.10;99.90
7512;DHT22;9999;48.780;9.146;2023-03-01T06:31:54;0.10;99.90
7512;DHT22;9999;48.780;9.146;2023-03-01T06:34:21;0.20;99.90
7512;DHT22;9999;48.780;9.146;2023-03-01T06:36:48;0.20;99.90
7512;DHT22;9999;48.780;9.146;2023-03-01T06:39:15;0.10;99.90
7512;DHT22;9999;48.780;9.146;2023-03-01T06:41:44;0.00;99.90
7512;DHT22;9999;48.780;9.146;2023-03-01T06:44:11;0.00;99.90
7512;DHT22;9999;48.780;9.146;2023-03-01T06:46:38;-0.10;99.90
7512;DHT22;9999;48.780;9.146;2023-03-01T06:49:05;-0.10;99.90
7512;DHT22;9999;48.780;9.146;2023-03-01T06:51:35;-0.10;99.90
7512;DHT22;9999;48.780;9.146;2023-03-01T06:54:02;-0.10;99.90
7512;DHT22;9999;48.780;9.146;2023-03-01T06:56:29;-0.10;99.90
7512;DHT22;9999;48.780;9.146;2023-03-01T06:58:57;0.00;99.90
7512;DHT22;9999;48.780;9.146;2023-03-01T07:01:24;0.00;99.90
7512;DHT22;9999;48.780;9.146;2023-03-01T07:03:51;0.10;99.90
7512;DHT22;9999;48.780;9.146;2023-03-01T07:06:18;0.10;99.90
7512;DHT22;9999;48.780;9.146;2023-03-01T07:08:45;0.20;99.90
7512;DHT22;9999;48.780;9.146;2023-03-01T07:11:12;0.20;99.90
7512;DHT22;9999;48.780;9.146;2023-03-01T07:13:39;0.20;99.90
7512;DHT22;9999;48.780;9.146;2023-03-01T07:16:07;0.40;99.90
7512;DHT22;9999;48.780;9.146;2023-03-01T07:18:34;0.60;99.90
7512;DHT22;9999;48.780;9.146;2023-03-01T07:21:04;0.80;99.90
7512;DHT22;9999;48.780;9.146;2023-03-01T07:23:32;1.10;99.90
7512;DHT22;9999;48.780;9.146;2023-03-01T07:25:58;1.30;99.90
7512;DHT22;9999;48.780;9.146;2023-03-01T07:28:26;1.60;99.90
7512;DHT22;9999;48.780;9.146;2023-03-01T07:30:53;1.90;99.90
7512;DHT22;9999;48.780;9.146;2023-03-01T07:33:21;1.90;99.90
7512;DHT22;9999;48.780;9.146;2023-03-01T07:35:48;2.40;99.90
7512;DHT22;9999;48.780;9.146;2023-03-01T07:38:14;2.70;99.90
7512;DHT22;9999;48.780;9.146;2023-03-01T07:40:41;3.00;99.90
7512;DHT22;9999;48.780;9.146;2023-03-01T07:43:08;3.40;99.90
7512;DHT22;9999;48.780;9.146;2023-03-01T07:45:35;3.30;99.90
7512;DHT22;9999;48.780;9.146;2023-03-01T07:48:02;3.10;99.90
7512;DHT22;9999;48.780;9.146;2023-03-01T07:50:30;3.30;99.90
7512;DHT22;9999;48.780;9.146;2023-03-01T07:52:57;3.50;99.90
7512;DHT22;9999;48.780;9.146;2023-03-01T07:55:24;3.40;99.90
7512;DHT22;9999;48.780;9.146;2023-03-01T07:57:51;3.60;99.90
7512;DHT22;9999;48.780;9.146;2023-03-01T08:00:18;3.50;99.90
7512;DHT22;9999;48.780;9.146;2023-03-01T08:02:45;3.90;99.90
7512;DHT22;9999;48.780;9.146;2023-03-01T08:05:12;4.00;99.90
7512;DHT22;9999;48.780;9.146;2023-03-01T08:07:40;3.80;99.90
7512;DHT22;9999;48.780;9.146;2023-03-01T08:10:07;3.60;99.90
7512;DHT22;9999;48.780;9.146;2023-03-01T08:12:34;3.80;99.90
7512;DHT22;9999;48.780;9.146;2023-03-01T08:15:01;4.00;99.90
7512;DHT22;9999;48.780;9.146;2023-03-01T08:17:28;3.80;99.90
7512;DHT22;9999;48.780;9.146;2023-03-01T08:19:55;3.50;99.90
7512;DHT22;9999;48.780;9.146;2023-03-01T08:22:22;3.30;99.90
7512;DHT22;9999;48.780;9.146;2023-03-01T08:24:50;2.90;99.90
7512;DHT22;9999;48.780;9.146;2023-03-01T08:27:17;3.30;99.90
7512;DHT22;9999;48.780;9.146;2023-03-01T08:29:44;3.40;99.90
7512;DHT22;9999;48.780;9.146;2023-03-01T08:32:10;3.40;99.90
7512;DHT22;9999;48.780;9.146;2023-03-01T08:34:37;3.50;99.90
7512;DHT22;9999;48.780;9.146;2023-03-01T08:37:04;3.70;99.90
7512;DHT22;9999;48.780;9.146;2023-03-01T08:39:31;3.80;99.90
7512;DHT22;9999;48.780;9.146;2023-03-01T08:41:59;3.80;99.90
7512;DHT22;9999;48.780;9.146;2023-03-01T08:44:26;3.80;99.90
7512;DHT22;9999;48.780;9.146;2023-03-01T08:46:53;3.90;99.90
7512;DHT22;9999;48.780;9.146;2023-03-01T08:49:21;3.40;99.90
7512;DHT22;9999;48.780;9.146;2023-03-01T08:51:49;3.40;99.90
7512;DHT22;9999;48.780;9.146;2023-03-01T08:54:18;3.40;99.90
7512;DHT22;9999;48.780;9.146;2023-03-01T08:56:45;3.40;99.90
7512;DHT22;9999;48.780;9.146;2023-03-01T08:59:14;3.20;99.90
7512;DHT22;9999;48.780;9.146;2023-03-01T09:01:41;3.20;99.90
7512;DHT22;9999;48.780;9.146;2023-03-01T09:04:10;3.30;99.90
7512;DHT22;9999;48.780;9.146;2023-03-01T09:06:37;3.30;99.90
7512;DHT22;9999;48.780;9.146;2023-03-01T09:09:04;3.30;99.90
7512;DHT22;9999;48.780;9.146;2023-03-01T09:11:31;3.30;99.90
7512;DHT22;9999;48.780;9.146;2023-03-01T09:13:58;3.40;99.90
7512;DHT22;9999;48.780;9.146;2023-03-01T09:16:27;3.30;99.90
7512;DHT22;9999;48.780;9.146;2023-03-01T09:18:55;3.30;99.90
7512;DHT22;9999;48.780;9.146;2023-03-01T09:21:23;3.30;99.90
7512;DHT22;9999;48.780;9.146;2023-03-01T09:23:50;3.40;99.90
7512;DHT22;9999;48.780;9.146;2023-03-01T09:26:19;3.30;99.90
7512;DHT22;9999;48.780;9.146;2023-03-01T09:28:47;3.40;99.90
7512;DHT22;9999;48.780;9.146;2023-03-01T09:31:15;3.50;99.90
7512;DHT22;9999;48.780;9.146;2023-03-01T09:33:46;3.50;99.90
7512;DHT22;9999;48.780;9.146;2023-03-01T09:36:15;3.50;99.90
7512;DHT22;9999;48.780;9.146;2023-03-01T09:38:42;3.60;99.90
7512;DHT22;9999;48.780;9.146;2023-03-01T09:41:11;3.70;99.90
7512;DHT22;9999;48.780;9.146;2023-03-01T09:43:49;3.60;99.90
7512;DHT22;9999;48.780;9.146;2023-03-01T09:46:21;3.60;99.90
7512;DHT22;9999;48.780;9.146;2023-03-01T09:48:52;3.50;99.90
7512;DHT22;9999;48.780;9.146;2023-03-01T09:51:25;3.50;99.90
7512;DHT22;9999;48.780;9.146;2023-03-01T09:53:53;3.50;99.90
7512;DHT22;9999;48.780;9.146;2023-03-01T09:56:27;3.50;99.90
7512;DHT22;9999;48.780;9.146;2023-03-01T09:59:01;3.70;99.90
7512;DHT22;9999;48.780;9.146;2023-03-01T10:01:34;3.80;99.90
7512;DHT22;9999;48.780;9.146;2023-03-01T10:04:12;3.80;99.90
7512;DHT22;9999;48.780;9.146;2023-03-01T10:06:50;3.80;99.90
7512;DHT22;9999;48.780;9.146;2023-03-01T10:09:20;4.00;99.90
7512;DHT22;9999;48.780;9.146;2023-03-01T10:11:50;4.10;99.90
7512;DHT22;9999;48.780;9.146;2023-03-01T10:14:29;4.10;99.90
7512;DHT22;9999;48.780;9.146;2023-03-01T10:16:59;4.30;99.90
7512;DHT22;9999;48.780;9.146;2023-03-01T10:19:32;4.30;99.90
7512;DHT22;9999;48.780;9.146;2023-03-01T10:22:03;4.40;99.90
7512;DHT22;9999;48.780;9.146;2023-03-01T10:24:34;4.50;99.90
7512;DHT22;9999;48.780;9.146;2023-03-01T10:27:05;4.70;99.90
7512;DHT22;9999;48.780;9.146;2023-03-01T10:29:39;4.90;99.90
7512;DHT22;9999;48.780;9.146;2023-03-01T10:32:09;4.90;99.90
7512;DHT22;9999;48.780;9.146;2023-03-01T10:34:38;4.90;99.90
7512;DHT22;9999;48.780;9.146;2023-03-01T10:37:11;5.00;99.90
7512;DHT22;9999;48.780;9.146;2023-03-01T10:39:55;5.10;99.90
7512;DHT22;9999;48.780;9.146;2023-03-01T10:42:27;5.30;99.90
7512;DHT22;9999;48.780;9.146;2023-03-01T10:44:54;5.30;99.90
7512;DHT22;9999;48.780;9.146;2023-03-01T10:47:22;5.40;99.90
7512;DHT22;9999;48.780;9.146;2023-03-01T10:50:00;5.60;99.90
7512;DHT22;9999;48.780;9.146;2023-03-01T10:52:31;5.90;99.90
7512;DHT22;9999;48.780;9.146;2023-03-01T10:54:59;6.00;99.90
7512;DHT22;9999;48.780;9.146;2023-03-01T10:57:30;6.10;99.90
7512;DHT22;9999;48.780;9.146;2023-03-01T11:00:14;6.20;99.90
7512;DHT22;9999;48.780;9.146;2023-03-01T11:02:42;6.40;99.90
7512;DHT22;9999;48.780;9.146;2023-03-01T11:05:18;6.60;99.90
7512;DHT22;9999;48.780;9.146;2023-03-01T11:07:50;6.50;99.90
7512;DHT22;9999;48.780;9.146;2023-03-01T11:10:23;6.70;99.90
7512;DHT22;9999;48.780;9.146;2023-03-01T11:12:51;6.80;99.90
7512;DHT22;9999;48.780;9.146;2023-03-01T11:15:26;6.80;99.90
7512;DHT22;9999;48.780;9.146;2023-03-01T11:17:53;7.20;99.90
7512;DHT22;9999;48.780;9.146;2023-03-01T11:20:29;7.50;99.90
7512;DHT22;9999;48.780;9.146;2023-03-01T11:22:59;7.80;99.90
7512;DHT22;9999;48.780;9.146;2023-03-01T11:25:30;7.60;99.90
7512;DHT22;9999;48.780;9.146;2023-03-01T11:27:59;7.60;99.80
7512;DHT22;9999;48.780;9.146;2023-03-01T11:30:31;7.60;99.90
7512;DHT22;9999;48.780;9.146;2023-03-01T11:33:05;7.80;99.90
7512;DHT22;9999;48.780;9.146;2023-03-01T11:35:41;8.00;98.80
7512;DHT22;9999;48.780;9.146;2023-03-01T11:38:17;7.90;99.90
7512;DHT22;9999;48.780;9.146;2023-03-01T11:40:49;8.00;98.90
7512;DHT22;9999;48.780;9.146;2023-03-01T11:43:21;7.70;98.10
7512;DHT22;9999;48.780;9.146;2023-03-01T11:52:11;8.40;97.20
7512;DHT22;9999;48.780;9.146;2023-03-01T11:54:49;8.20;99.00
7512;DHT22;9999;48.780;9.146;2023-03-01T11:57:32;8.00;97.90
7512;DHT22;9999;48.780;9.146;2023-03-01T12:00:19;8.40;98.60
7512;DHT22;9999;48.780;9.146;2023-03-01T12:03:16;8.30;98.00
7512;DHT22;9999;48.780;9.146;2023-03-01T12:06:06;8.10;95.70
7512;DHT22;9999;48.780;9.146;2023-03-01T12:08:40;8.10;96.20
7512;DHT22;9999;48.780;9.146;2023-03-01T12:11:19;8.40;98.50
7512;DHT22;9999;48.780;9.146;2023-03-01T12:14:03;8.70;96.10
7512;DHT22;9999;48.780;9.146;2023-03-01T12:16:54;8.80;96.00
7512;DHT22;9999;48.780;9.146;2023-03-01T12:22:24;8.70;97.20
7512;DHT22;9999;48.780;9.146;2023-03-01T12:25:18;8.70;96.00
7512;DHT22;9999;48.780;9.146;2023-03-01T12:28:16;9.00;97.40
7512;DHT22;9999;48.780;9.146;2023-03-01T12:31:01;9.20;97.50
7512;DHT22;9999;48.780;9.146;2023-03-01T12:33:43;9.20;92.30
7512;DHT22;9999;48.780;9.146;2023-03-01T12:36:36;8.90;96.00
7512;DHT22;9999;48.780;9.146;2023-03-01T12:39:17;8.90;93.30
7512;DHT22;9999;48.780;9.146;2023-03-01T12:41:52;8.80;95.60
7512;DHT22;9999;48.780;9.146;2023-03-01T12:44:30;9.00;96.50
7512;DHT22;9999;48.780;9.146;2023-03-01T12:47:13;9.30;96.80
7512;DHT22;9999;48.780;9.146;2023-03-01T12:49:43;9.40;94.00
7512;DHT22;9999;48.780;9.146;2023-03-01T12:52:15;9.50;95.40
7512;DHT22;9999;48.780;9.146;2023-03-01T12:54:45;9.50;92.70
7512;DHT22;9999;48.780;9.146;2023-03-01T12:57:20;9.40;92.30
7512;DHT22;9999;48.780;9.146;2023-03-01T12:59:57;9.40;94.00
7512;DHT22;9999;48.780;9.146;2023-03-01T13:02:32;9.50;93.50
7512;DHT22;9999;48.780;9.146;2023-03-01T13:05:17;9.80;94.30
7512;DHT22;9999;48.780;9.146;2023-03-01T13:07:54;9.60;92.60
7512;DHT22;9999;48.780;9.146;2023-03-01T13:10:28;9.70;92.80
7512;DHT22;9999;48.780;9.146;2023-03-01T13:13:14;9.70;94.50
7512;DHT22;9999;48.780;9.146;2023-03-01T13:15:44;9.80;92.80
7512;DHT22;9999;48.780;9.146;2023-03-01T13:18:31;9.80;91.70
7512;DHT22;9999;48.780;9.146;2023-03-01T13:21:00;9.80;91.10
7512;DHT22;9999;48.780;9.146;2023-03-01T13:23:30;9.70;93.30
7512;DHT22;9999;48.780;9.146;2023-03-01T13:26:04;9.80;92.80
7512;DHT22;9999;48.780;9.146;2023-03-01T13:28:49;9.90;92.50
7512;DHT22;9999;48.780;9.146;2023-03-01T13:37:34;9.80;92.90
7512;DHT22;9999;48.780;9.146;2023-03-01T13:43:27;9.80;92.50
7512;DHT22;9999;48.780;9.146;2023-03-01T13:45:57;9.80;92.20
7512;DHT22;9999;48.780;9.146;2023-03-01T13:48:27;9.70;91.50
7512;DHT22;9999;48.780;9.146;2023-03-01T13:50:57;9.60;92.40
7512;DHT22;9999;48.780;9.146;2023-03-01T13:53:28;9.50;92.40
7512;DHT22;9999;48.780;9.146;2023-03-01T13:55:57;9.60;92.20
7512;DHT22;9999;48.780;9.146;2023-03-01T13:58:27;9.70;91.50
7512;DHT22;9999;48.780;9.146;2023-03-01T14:01:00;9.50;91.00
7512;DHT22;9999;48.780;9.146;2023-03-01T14:03:28;9.40;92.10
7512;DHT22;9999;48.780;9.146;2023-03-01T14:06:03;9.30;92.20
7512;DHT22;9999;48.780;9.146;2023-03-01T14:08:32;9.30;91.70
7512;DHT22;9999;48.780;9.146;2023-03-01T14:11:22;9.20;92.70
7512;DHT22;9999;48.780;9.146;2023-03-01T14:14:02;9.20;93.60
7512;DHT22;9999;48.780;9.146;2023-03-01T14:16:43;9.10;93.00
7512;DHT22;9999;48.780;9.146;2023-03-01T14:19:18;9.00;92.10
7512;DHT22;9999;48.780;9.146;2023-03-01T14:21:47;9.00;92.40
7512;DHT22;9999;48.780;9.146;2023-03-01T14:24:18;9.10;93.30
7512;DHT22;9999;48.780;9.146;2023-03-01T14:26:45;9.00;93.00
7512;DHT22;9999;48.780;9.146;2023-03-01T14:29:24;8.90;94.50
7512;DHT22;9999;48.780;9.146;2023-03-01T14:31:52;9.00;93.20
7512;DHT22;9999;48.780;9.146;2023-03-01T14:34:24;8.90;94.40
7512;DHT22;9999;48.780;9.146;2023-03-01T14:36:51;8.80;94.00
7512;DHT22;9999;48.780;9.146;2023-03-01T14:39:19;8.80;94.90
7512;DHT22;9999;48.780;9.146;2023-03-01T14:41:47;8.70;94.60
7512;DHT22;9999;48.780;9.146;2023-03-01T14:44:18;8.60;93.90
7512;DHT22;9999;48.780;9.146;2023-03-01T14:46:46;8.60;95.30
7512;DHT22;9999;48.780;9.146;2023-03-01T14:49:17;8.60;95.00
7512;DHT22;9999;48.780;9.146;2023-03-01T14:51:51;8.50;94.70
7512;DHT22;9999;48.780;9.146;2023-03-01T14:54:21;8.40;94.70
7512;DHT22;9999;48.780;9.146;2023-03-01T14:56:51;8.40;95.70
7512;DHT22;9999;48.780;9.146;2023-03-01T14:59:21;8.30;94.40
7512;DHT22;9999;48.780;9.146;2023-03-01T15:01:48;8.30;95.40
7512;DHT22;9999;48.780;9.146;2023-03-01T15:04:16;8.40;95.70
7512;DHT22;9999;48.780;9.146;2023-03-01T15:06:44;8.20;96.00
7512;DHT22;9999;48.780;9.146;2023-03-01T15:09:14;8.10;95.70
7512;DHT22;9999;48.780;9.146;2023-03-01T15:11:42;8.20;97.30
7512;DHT22;9999;48.780;9.146;2023-03-01T15:14:39;8.10;95.50
7512;DHT22;9999;48.780;9.146;2023-03-01T15:17:20;8.00;95.50
7512;DHT22;9999;48.780;9.146;2023-03-01T15:19:50;7.90;95.90
7512;DHT22;9999;48.780;9.146;2023-03-01T15:22:17;7.90;97.40
7512;DHT22;9999;48.780;9.146;2023-03-01T15:24:47;7.90;98.10
7512;DHT22;9999;48.780;9.146;2023-03-01T15:27:17;7.80;97.60
7512;DHT22;9999;48.780;9.146;2023-03-01T15:29:48;7.80;96.90
7512;DHT22;9999;48.780;9.146;2023-03-01T15:32:26;7.70;96.40
7512;DHT22;9999;48.780;9.146;2023-03-01T15:34:54;7.70;98.80
7512;DHT22;9999;48.780;9.146;2023-03-01T15:37:40;7.70;98.40
7512;DHT22;9999;48.780;9.146;2023-03-01T15:40:19;7.70;98.70
7512;DHT22;9999;48.780;9.146;2023-03-01T15:42:46;7.70;98.40
7512;DHT22;9999;48.780;9.146;2023-03-01T15:45:23;7.60;98.20
7512;DHT22;9999;48.780;9.146;2023-03-01T15:47:53;7.60;99.40
7512;DHT22;9999;48.780;9.146;2023-03-01T15:50:26;7.50;99.10
7512;DHT22;9999;48.780;9.146;2023-03-01T15:52:54;7.40;98.20
7512;DHT22;9999;48.780;9.146;2023-03-01T15:55:23;7.30;98.30
7512;DHT22;9999;48.780;9.146;2023-03-01T15:57:58;7.30;99.60
7512;DHT22;9999;48.780;9.146;2023-03-01T16:00:26;7.20;98.50
7512;DHT22;9999;48.780;9.146;2023-03-01T16:02:53;7.20;99.50
7512;DHT22;9999;48.780;9.146;2023-03-01T16:05:22;7.10;99.80
7512;DHT22;9999;48.780;9.146;2023-03-01T16:07:50;7.00;99.90
7512;DHT22;9999;48.780;9.146;2023-03-01T16:10:18;6.90;99.90
7512;DHT22;9999;48.780;9.146;2023-03-01T16:12:45;6.90;99.30
7512;DHT22;9999;48.780;9.146;2023-03-01T16:15:16;6.80;99.90
7512;DHT22;9999;48.780;9.146;2023-03-01T16:17:43;6.80;99.90
7512;DHT22;9999;48.780;9.146;2023-03-01T16:20:16;6.70;99.90
7512;DHT22;9999;48.780;9.146;2023-03-01T16:22:43;6.60;99.90
7512;DHT22;9999;48.780;9.146;2023-03-01T16:25:13;6.60;99.90
7512;DHT22;9999;48.780;9.146;2023-03-01T16:27:42;6.60;99.90
7512;DHT22;9999;48.780;9.146;2023-03-01T16:30:10;6.60;99.90
7512;DHT22;9999;48.780;9.146;2023-03-01T16:32:38;6.50;99.90
7512;DHT22;9999;48.780;9.146;2023-03-01T16:35:05;6.50;99.90
7512;DHT22;9999;48.780;9.146;2023-03-01T16:37:33;6.40;99.90
7512;DHT22;9999;48.780;9.146;2023-03-01T16:40:00;6.30;99.90
7512;DHT22;9999;48.780;9.146;2023-03-01T16:42:33;6.30;99.90
7512;DHT22;9999;48.780;9.146;2023-03-01T16:45:06;6.20;99.90
7512;DHT22;9999;48.780;9.146;2023-03-01T16:47:34;6.20;99.90
7512;DHT22;9999;48.780;9.146;2023-03-01T16:50:00;6.10;99.90
7512;DHT22;9999;48.780;9.146;2023-03-01T16:52:27;6.00;99.90